Terminal Aerodrome Forecast
Issued by NWS Brownsville, TX

Home | Current Version | Previous Version | Text Only | Print | Product List | Glossary On
Versions: 1 2 3 4 5 6 7 8 9 10 11 12
000
FTUS44 KBRO 130521
TAFHRL
TAF
KHRL 130521Z 1306/1406 32003KT P6SM SCT250
     FM131700 22005KT P6SM FEW250
     FM132000 17007KT P6SM FEW250=

USA.gov is the U.S. government's official web portal to all federal, state and local government web resources and services.